Time,TemperatureF,DewpointF,PressureIn,WindDirection,WindDirectionDegrees,WindSpeedMPH,WindSpeedGustMPH,Humidity,HourlyPrecipIn,Conditions,Clouds,dailyrainin,SoftwareType,DateUTC
2013-03-07 00:04:00,32.8,29.4,30.23,West,277,0.0,1.0,87,0.00,,,0.00,Wunderground v.1.15,2013-03-07 05:04:00,
2013-03-07 00:09:00,32.8,29.4,30.23,West,277,1.0,1.0,87,0.00,,,0.00,Wunderground v.1.15,2013-03-07 05:09:00,
2013-03-07 00:15:00,32.8,29.4,30.23,WSW,258,1.0,1.0,87,0.00,,,0.00,Wunderground v.1.15,2013-03-07 05:15:00,
2013-03-07 00:19:00,32.7,29.3,30.23,West,261,0.0,0.0,87,0.00,,,0.00,Wunderground v.1.15,2013-03-07 05:19:00,
2013-03-07 00:25:00,32.7,29.3,30.23,West,270,1.0,2.0,87,0.00,,,0.00,Wunderground v.1.15,2013-03-07 05:25:00,
2013-03-07 00:30:00,32.7,29.3,30.23,West,275,1.0,3.0,87,0.00,,,0.00,Wunderground v.1.15,2013-03-07 05:30:00,
2013-03-07 00:40:00,32.7,29.3,30.23,West,271,1.0,5.0,87,0.00,,,0.00,Wunderground v.1.15,2013-03-07 05:40:00,
2013-03-07 00:49:00,32.7,29.3,30.23,West,271,0.0,1.0,87,0.00,,,0.00,Wunderground v.1.15,2013-03-07 05:49:00,
2013-03-07 00:59:00,32.7,29.3,30.23,West,271,0.0,0.0,87,0.00,,,0.00,Wunderground v.1.15,2013-03-07 05:59:00,
2013-03-07 01:05:00,32.7,29.3,30.23,West,271,0.0,0.0,87,0.00,,,0.00,Wunderground v.1.15,2013-03-07 06:05:00,
2013-03-07 01:15:00,32.7,29.3,30.23,West,272,0.0,1.0,87,0.00,,,0.00,Wunderground v.1.15,2013-03-07 06:15:00,
2013-03-07 01:24:00,32.5,29.1,30.23,West,274,0.0,1.0,87,0.00,,,0.00,Wunderground v.1.15,2013-03-07 06:24:00,
2013-03-07 01:30:00,32.5,29.1,30.23,West,274,0.0,2.0,87,0.00,,,0.00,Wunderground v.1.15,2013-03-07 06:30:00,
2013-03-07 01:39:00,32.5,29.1,30.23,West,277,1.0,1.0,87,0.00,,,0.00,Wunderground v.1.15,2013-03-07 06:39:00,
2013-03-07 01:49:00,32.5,29.1,30.23,West,277,1.0,1.0,87,0.00,,,0.00,Wunderground v.1.15,2013-03-07 06:49:00,
2013-03-07 01:59:00,32.5,29.1,30.24,West,277,1.0,1.0,87,0.00,,,0.00,Wunderground v.1.15,2013-03-07 06:59:00,
2013-03-07 02:05:00,32.4,29.0,30.24,West,278,1.0,1.0,87,0.00,,,0.00,Wunderground v.1.15,2013-03-07 07:05:00,
2013-03-07 02:15:00,32.4,29.0,30.23,West,270,1.0,4.0,87,0.00,,,0.00,Wunderground v.1.15,2013-03-07 07:15:00,
2013-03-07 02:24:00,32.4,29.0,30.23,West,270,0.0,1.0,87,0.00,,,0.00,Wunderground v.1.15,2013-03-07 07:24:00,
2013-03-07 02:30:00,32.4,29.0,30.23,WSW,258,1.0,2.0,87,0.00,,,0.00,Wunderground v.1.15,2013-03-07 07:30:00,
2013-03-07 02:39:00,32.4,29.0,30.23,West,264,1.0,1.0,87,0.00,,,0.00,Wunderground v.1.15,2013-03-07 07:39:00,
2013-03-07 02:45:00,32.4,29.0,30.23,West,270,1.0,1.0,87,0.00,,,0.00,Wunderground v.1.15,2013-03-07 07:45:00,
2013-03-07 02:54:00,32.4,29.0,30.23,West,272,1.0,1.0,87,0.00,,,0.00,Wunderground v.1.15,2013-03-07 07:54:00,
2013-03-07 02:59:00,32.4,29.0,30.23,West,281,1.0,1.0,87,0.00,,,0.00,Wunderground v.1.15,2013-03-07 07:59:00,
2013-03-07 03:05:00,32.4,29.0,30.23,West,281,0.0,1.0,87,0.00,,,0.00,Wunderground v.1.15,2013-03-07 08:05:00,
2013-03-07 03:10:00,32.4,29.0,30.23,West,281,0.0,2.0,87,0.00,,,0.00,Wunderground v.1.15,2013-03-07 08:10:00,
2013-03-07 03:20:00,32.4,28.7,30.23,WNW,287,1.0,1.0,86,0.00,,,0.00,Wunderground v.1.15,2013-03-07 08:20:00,
2013-03-07 03:25:00,32.4,28.7,30.23,WNW,287,1.0,1.0,86,0.00,,,0.00,Wunderground v.1.15,2013-03-07 08:25:00,
2013-03-07 03:30:00,32.5,28.8,30.23,WNW,291,1.0,1.0,86,0.00,,,0.00,Wunderground v.1.15,2013-03-07 08:30:00,
2013-03-07 03:40:00,32.4,28.7,30.23,WNW,291,0.0,1.0,86,0.00,,,0.00,Wunderground v.1.15,2013-03-07 08:40:00,
2013-03-07 03:50:00,32.4,28.7,30.24,WNW,295,0.0,1.0,86,0.00,,,0.00,Wunderground v.1.15,2013-03-07 08:50:00,
2013-03-07 04:00:00,32.4,28.7,30.24,WNW,295,0.0,0.0,86,0.00,,,0.00,Wunderground v.1.15,2013-03-07 09:00:00,
2013-03-07 04:05:00,32.4,28.7,30.24,WNW,295,0.0,0.0,86,0.00,,,0.00,Wunderground v.1.15,2013-03-07 09:05:00,
2013-03-07 04:15:00,32.4,28.7,30.25,WNW,282,1.0,1.0,86,0.00,,,0.00,Wunderground v.1.15,2013-03-07 09:15:00,
2013-03-07 04:25:00,32.4,28.7,30.25,WNW,291,0.0,1.0,86,0.00,,,0.00,Wunderground v.1.15,2013-03-07 09:25:00,
2013-03-07 04:30:00,32.4,28.7,30.25,WNW,296,1.0,2.0,86,0.00,,,0.00,Wunderground v.1.15,2013-03-07 09:30:00,
2013-03-07 04:40:00,32.4,28.7,30.25,WNW,295,0.0,1.0,86,0.00,,,0.00,Wunderground v.1.15,2013-03-07 09:40:00,
2013-03-07 04:45:00,32.4,28.7,30.26,WNW,295,0.0,1.0,86,0.00,,,0.00,Wunderground v.1.15,2013-03-07 09:45:00,
2013-03-07 04:55:00,32.4,28.7,30.26,WNW,295,0.0,1.0,86,0.00,,,0.00,Wunderground v.1.15,2013-03-07 09:55:00,
2013-03-07 05:05:00,32.4,28.4,30.26,WNW,292,0.0,1.0,85,0.00,,,0.00,Wunderground v.1.15,2013-03-07 10:05:00,
2013-03-07 05:10:00,32.4,28.4,30.26,WNW,287,0.0,0.0,85,0.00,,,0.00,Wunderground v.1.15,2013-03-07 10:10:00,
2013-03-07 05:20:00,32.4,28.4,30.26,WNW,298,1.0,1.0,85,0.00,,,0.00,Wunderground v.1.15,2013-03-07 10:20:00,
2013-03-07 05:30:00,32.2,28.2,30.27,WNW,287,1.0,1.0,85,0.00,,,0.00,Wunderground v.1.15,2013-03-07 10:30:00,
2013-03-07 05:35:00,32.2,28.2,30.27,WNW,287,1.0,1.0,85,0.00,,,0.00,Wunderground v.1.15,2013-03-07 10:35:00,
2013-03-07 05:45:00,32.2,28.2,30.27,West,272,1.0,1.0,85,0.00,,,0.00,Wunderground v.1.15,2013-03-07 10:45:00,
2013-03-07 05:50:00,32.2,28.2,30.27,West,272,1.0,2.0,85,0.00,,,0.00,Wunderground v.1.15,2013-03-07 10:50:00,
2013-03-07 06:00:00,32.2,28.2,30.28,West,274,1.0,1.0,85,0.00,,,0.00,Wunderground v.1.15,2013-03-07 11:00:00,
2013-03-07 06:10:00,32.2,28.2,30.28,West,272,1.0,3.0,85,0.00,,,0.00,Wunderground v.1.15,2013-03-07 11:10:00,
2013-03-07 06:20:00,32.2,28.2,30.28,WNW,287,1.0,1.0,85,0.00,,,0.00,Wunderground v.1.15,2013-03-07 11:20:00,
2013-03-07 06:25:00,32.2,28.2,30.28,WNW,291,1.0,1.0,85,0.00,,,0.00,Wunderground v.1.15,2013-03-07 11:25:00,
2013-03-07 06:30:00,32.2,28.2,30.29,WNW,284,1.0,1.0,85,0.00,,,0.00,Wunderground v.1.15,2013-03-07 11:30:00,
2013-03-07 06:40:00,32.1,28.1,30.29,West,278,1.0,1.0,85,0.00,,,0.00,Wunderground v.1.15,2013-03-07 11:40:00,
2013-03-07 06:50:00,32.1,28.1,30.29,West,274,0.0,0.0,85,0.00,,,0.00,Wunderground v.1.15,2013-03-07 11:50:00,
2013-03-07 07:00:00,32.1,28.1,30.30,SW,229,1.0,1.0,85,0.00,,,0.00,Wunderground v.1.15,2013-03-07 12:00:00,
2013-03-07 07:05:00,32.1,28.1,30.30,WSW,256,1.0,1.0,85,0.00,,,0.00,Wunderground v.1.15,2013-03-07 12:05:00,
2013-03-07 07:10:00,32.1,28.1,30.30,West,261,1.0,1.0,85,0.00,,,0.00,Wunderground v.1.15,2013-03-07 12:10:00,
2013-03-07 07:20:00,32.1,28.1,30.31,West,263,1.0,1.0,85,0.00,,,0.00,Wunderground v.1.15,2013-03-07 12:20:00,
2013-03-07 07:30:00,32.1,28.1,30.31,West,275,1.0,2.0,85,0.00,,,0.00,Wunderground v.1.15,2013-03-07 12:30:00,
2013-03-07 07:40:00,32.2,28.2,30.31,West,275,1.0,1.0,85,0.00,,,0.00,Wunderground v.1.15,2013-03-07 12:40:00,
2013-03-07 07:50:00,32.2,28.2,30.32,West,274,0.0,1.0,85,0.00,,,0.00,Wunderground v.1.15,2013-03-07 12:50:00,
2013-03-07 08:00:00,32.4,28.1,30.33,West,278,1.0,1.0,84,0.00,,,0.00,Wunderground v.1.15,2013-03-07 13:00:00,
2013-03-07 08:05:00,32.4,28.1,30.33,West,278,1.0,1.0,84,0.00,,,0.00,Wunderground v.1.15,2013-03-07 13:05:00,
2013-03-07 08:10:00,32.5,28.2,30.33,West,278,1.0,1.0,84,0.00,,,0.00,Wunderground v.1.15,2013-03-07 13:10:00,
2013-03-07 08:20:00,32.7,28.4,30.33,West,278,0.0,0.0,84,0.00,,,0.00,Wunderground v.1.15,2013-03-07 13:20:00,
2013-03-07 08:30:00,32.7,28.1,30.33,WNW,289,1.0,1.0,83,0.00,,,0.00,Wunderground v.1.15,2013-03-07 13:30:00,
2013-03-07 08:40:00,32.8,28.2,30.33,WNW,289,1.0,1.0,83,0.00,,,0.00,Wunderground v.1.15,2013-03-07 13:40:00,
2013-03-07 08:45:00,32.9,28.3,30.33,West,278,1.0,3.0,83,0.00,,,0.00,Wunderground v.1.15,2013-03-07 13:45:00,
2013-03-07 08:55:00,33.1,28.5,30.33,WNW,282,0.0,1.0,83,0.00,,,0.00,Wunderground v.1.15,2013-03-07 13:55:00,
2013-03-07 09:00:00,33.1,28.2,30.34,WNW,288,1.0,1.0,82,0.00,,,0.00,Wunderground v.1.15,2013-03-07 14:00:00,
2013-03-07 09:10:00,33.2,28.3,30.34,WNW,287,1.0,1.0,82,0.00,,,0.00,Wunderground v.1.15,2013-03-07 14:10:00,
2013-03-07 09:20:00,33.4,28.2,30.34,WNW,287,0.0,0.0,81,0.00,,,0.00,Wunderground v.1.15,2013-03-07 14:20:00,
2013-03-07 09:30:00,33.7,28.5,30.34,WNW,285,1.0,1.0,81,0.00,,,0.00,Wunderground v.1.15,2013-03-07 14:30:00,
2013-03-07 09:40:00,33.8,28.6,30.34,WNW,287,1.0,1.0,81,0.00,,,0.00,Wunderground v.1.15,2013-03-07 14:40:00,
2013-03-07 09:45:00,33.8,28.6,30.34,WNW,287,2.0,2.0,81,0.00,,,0.00,Wunderground v.1.15,2013-03-07 14:45:00,
2013-03-07 09:55:00,34.1,28.6,30.34,West,277,1.0,1.0,80,0.00,,,0.00,Wunderground v.1.15,2013-03-07 14:55:00,
2013-03-07 10:05:00,34.4,28.9,30.34,WNW,284,1.0,1.0,80,0.00,,,0.00,Wunderground v.1.15,2013-03-07 15:05:00,
2013-03-07 10:15:00,34.7,28.9,30.33,WNW,295,1.0,2.0,79,0.00,,,0.00,Wunderground v.1.15,2013-03-07 15:15:00,
2013-03-07 10:20:00,35.0,29.1,30.33,West,260,1.0,1.0,79,0.00,,,0.00,Wunderground v.1.15,2013-03-07 15:20:00,
2013-03-07 10:30:00,35.2,28.7,30.33,WNW,294,2.0,6.0,77,0.00,,,0.00,Wunderground v.1.15,2013-03-07 15:30:00,
2013-03-07 10:40:00,35.5,29.0,30.33,WNW,282,3.0,3.0,77,0.00,,,0.01,Wunderground v.1.15,2013-03-07 15:40:00,
2013-03-07 10:50:00,35.6,28.8,30.34,WNW,287,3.0,3.0,76,0.00,,,0.01,Wunderground v.1.15,2013-03-07 15:50:00,
2013-03-07 10:55:00,35.8,28.6,30.34,WNW,292,2.0,4.0,75,0.00,,,0.01,Wunderground v.1.15,2013-03-07 15:55:00,
2013-03-07 11:05:00,35.9,29.1,30.34,West,281,3.0,4.0,76,0.00,,,0.01,Wunderground v.1.15,2013-03-07 16:05:00,
2013-03-07 11:10:00,35.9,28.7,30.34,NW,306,3.0,3.0,75,0.00,,,0.01,Wunderground v.1.15,2013-03-07 16:10:00,
2013-03-07 11:20:00,36.5,29.3,30.34,WNW,299,1.0,6.0,75,0.00,,,0.01,Wunderground v.1.15,2013-03-07 16:20:00,
2013-03-07 11:30:00,36.6,29.1,30.34,WNW,285,2.0,2.0,74,0.00,,,0.01,Wunderground v.1.15,2013-03-07 16:30:00,
2013-03-07 11:40:00,36.9,28.7,30.34,WNW,296,2.0,2.0,72,0.00,,,0.01,Wunderground v.1.15,2013-03-07 16:40:00,
2013-03-07 11:45:00,36.8,28.6,30.34,West,272,3.0,3.0,72,0.00,,,0.01,Wunderground v.1.15,2013-03-07 16:45:00,
2013-03-07 11:50:00,36.9,29.1,30.34,WNW,294,3.0,7.0,73,0.00,,,0.01,Wunderground v.1.15,2013-03-07 16:50:00,
2013-03-07 12:00:00,37.0,28.8,30.34,West,280,4.0,4.0,72,0.00,,,0.01,Wunderground v.1.15,2013-03-07 17:00:00,
2013-03-07 12:05:00,37.0,28.5,30.34,WNW,294,3.0,4.0,71,0.00,,,0.01,Wunderground v.1.15,2013-03-07 17:05:00,
2013-03-07 12:10:00,37.5,29.3,30.34,WNW,282,3.0,5.0,72,0.00,,,0.01,Wunderground v.1.15,2013-03-07 17:10:00,
2013-03-07 12:20:00,38.0,29.1,30.33,WNW,302,2.0,2.0,70,0.00,,,0.01,Wunderground v.1.15,2013-03-07 17:20:00,
2013-03-07 12:30:00,38.0,28.7,30.33,WNW,299,2.0,2.0,69,0.00,,,0.01,Wunderground v.1.15,2013-03-07 17:30:00,
2013-03-07 12:40:00,38.0,29.1,30.33,WNW,291,2.0,2.0,70,0.00,,,0.01,Wunderground v.1.15,2013-03-07 17:40:00,
2013-03-07 12:45:00,37.9,28.6,30.33,WNW,295,2.0,3.0,69,0.00,,,0.01,Wunderground v.1.15,2013-03-07 17:45:00,
2013-03-07 12:55:00,38.2,28.9,30.33,West,261,2.0,2.0,69,0.00,,,0.01,Wunderground v.1.15,2013-03-07 17:55:00,
2013-03-07 13:00:00,38.3,29.0,30.33,WNW,289,2.0,2.0,69,0.00,,,0.01,Wunderground v.1.15,2013-03-07 18:00:00,
2013-03-07 13:10:00,38.5,29.2,30.33,West,268,2.0,2.0,69,0.00,,,0.01,Wunderground v.1.15,2013-03-07 18:10:00,
2013-03-07 13:20:00,38.8,29.5,30.32,WNW,282,1.0,2.0,69,0.00,,,0.01,Wunderground v.1.15,2013-03-07 18:20:00,
2013-03-07 13:30:00,38.6,28.9,30.32,WNW,291,2.0,3.0,68,0.00,,,0.01,Wunderground v.1.15,2013-03-07 18:30:00,
2013-03-07 13:40:00,38.8,29.5,30.32,West,281,3.0,3.0,69,0.00,,,0.01,Wunderground v.1.15,2013-03-07 18:40:00,
2013-03-07 13:50:00,38.8,28.8,30.31,NW,309,3.0,3.0,67,0.00,,,0.01,Wunderground v.1.15,2013-03-07 18:50:00,
2013-03-07 13:55:00,38.8,28.8,30.31,West,277,2.0,3.0,67,0.00,,,0.01,Wunderground v.1.15,2013-03-07 18:55:00,
2013-03-07 14:00:00,38.9,28.9,30.31,WNW,292,2.0,4.0,67,0.00,,,0.01,Wunderground v.1.15,2013-03-07 19:00:00,
2013-03-07 14:10:00,39.2,29.2,30.31,WNW,289,1.0,1.0,67,0.00,,,0.01,Wunderground v.1.15,2013-03-07 19:10:00,
2013-03-07 14:15:00,39.3,29.3,30.31,West,274,2.0,2.0,67,0.00,,,0.01,Wunderground v.1.15,2013-03-07 19:15:00,
2013-03-07 14:25:00,39.6,29.2,30.31,West,263,2.0,2.0,66,0.00,,,0.01,Wunderground v.1.15,2013-03-07 19:25:00,
2013-03-07 14:30:00,39.8,29.4,30.31,West,263,1.0,2.0,66,0.00,,,0.01,Wunderground v.1.15,2013-03-07 19:30:00,
2013-03-07 14:40:00,39.9,29.1,30.31,NW,306,1.0,1.0,65,0.00,,,0.01,Wunderground v.1.15,2013-03-07 19:40:00,
2013-03-07 14:50:00,40.1,29.3,30.31,NW,305,1.0,1.0,65,0.00,,,0.01,Wunderground v.1.15,2013-03-07 19:50:00,
2013-03-07 15:00:00,39.6,28.8,30.31,WNW,285,3.0,3.0,65,0.00,,,0.01,Wunderground v.1.15,2013-03-07 20:00:00,
2013-03-07 15:10:00,40.2,29.7,30.31,WNW,298,1.0,1.0,66,0.00,,,0.01,Wunderground v.1.15,2013-03-07 20:10:00,
2013-03-07 15:15:00,40.3,29.5,30.31,NW,306,1.0,1.0,65,0.00,,,0.01,Wunderground v.1.15,2013-03-07 20:15:00,
2013-03-07 15:25:00,40.2,29.0,30.31,West,275,2.0,2.0,64,0.00,,,0.01,Wunderground v.1.15,2013-03-07 20:25:00,
2013-03-07 15:35:00,40.1,29.3,30.31,West,275,2.0,2.0,65,0.00,,,0.01,Wunderground v.1.15,2013-03-07 20:35:00,
2013-03-07 15:45:00,40.1,29.3,30.31,WSW,256,2.0,2.0,65,0.00,,,0.01,Wunderground v.1.15,2013-03-07 20:45:00,
2013-03-07 15:50:00,40.1,29.3,30.31,WSW,246,2.0,2.0,65,0.00,,,0.01,Wunderground v.1.15,2013-03-07 20:50:00,
2013-03-07 16:00:00,40.3,29.5,30.31,WSW,257,1.0,4.0,65,0.00,,,0.01,Wunderground v.1.15,2013-03-07 21:00:00,
2013-03-07 16:05:00,40.2,29.4,30.31,West,267,2.0,4.0,65,0.00,,,0.01,Wunderground v.1.15,2013-03-07 21:05:00,
2013-03-07 16:10:00,40.1,29.3,30.31,SW,217,3.0,3.0,65,0.00,,,0.01,Wunderground v.1.15,2013-03-07 21:10:00,
2013-03-07 16:20:00,39.3,29.3,30.31,SW,234,3.0,5.0,67,0.00,,,0.01,Wunderground v.1.15,2013-03-07 21:20:00,
2013-03-07 16:30:00,38.9,29.2,30.31,West,267,2.0,2.0,68,0.00,,,0.01,Wunderground v.1.15,2013-03-07 21:30:00,
2013-03-07 16:40:00,38.9,29.6,30.31,WNW,285,2.0,2.0,69,0.00,,,0.01,Wunderground v.1.15,2013-03-07 21:40:00,
2013-03-07 16:50:00,39.1,29.8,30.31,WSW,257,1.0,2.0,69,0.00,,,0.01,Wunderground v.1.15,2013-03-07 21:50:00,
2013-03-07 17:00:00,38.9,29.6,30.32,WSW,257,2.0,2.0,69,0.00,,,0.01,Wunderground v.1.15,2013-03-07 22:00:00,
2013-03-07 17:05:00,38.8,29.5,30.32,West,275,2.0,2.0,69,0.00,,,0.01,Wunderground v.1.15,2013-03-07 22:05:00,
2013-03-07 17:10:00,38.8,29.1,30.32,West,270,3.0,3.0,68,0.00,,,0.01,Wunderground v.1.15,2013-03-07 22:10:00,
2013-03-07 17:20:00,38.8,29.5,30.33,WNW,287,2.0,2.0,69,0.00,,,0.01,Wunderground v.1.15,2013-03-07 22:20:00,
2013-03-07 17:30:00,38.8,29.5,30.33,West,272,2.0,2.0,69,0.00,,,0.01,Wunderground v.1.15,2013-03-07 22:30:00,
2013-03-07 17:40:00,38.6,29.3,30.33,West,264,1.0,2.0,69,0.00,,,0.01,Wunderground v.1.15,2013-03-07 22:40:00,
2013-03-07 17:50:00,38.5,29.6,30.33,West,265,1.0,2.0,70,0.00,,,0.01,Wunderground v.1.15,2013-03-07 22:50:00,
2013-03-07 17:55:00,38.3,29.4,30.33,WNW,282,2.0,3.0,70,0.00,,,0.01,Wunderground v.1.15,2013-03-07 22:55:00,
2013-03-07 18:05:00,38.2,29.3,30.33,West,274,2.0,2.0,70,0.00,,,0.01,Wunderground v.1.15,2013-03-07 23:05:00,
2013-03-07 18:10:00,38.2,29.6,30.33,WNW,288,1.0,1.0,71,0.00,,,0.01,Wunderground v.1.15,2013-03-07 23:10:00,
2013-03-07 18:20:00,38.0,29.4,30.34,West,272,1.0,2.0,71,0.00,,,0.01,Wunderground v.1.15,2013-03-07 23:20:00,
2013-03-07 18:25:00,37.9,29.3,30.34,West,274,1.0,2.0,71,0.00,,,0.01,Wunderground v.1.15,2013-03-07 23:25:00,
2013-03-07 18:35:00,37.8,29.2,30.34,WNW,285,1.0,1.0,71,0.00,,,0.01,Wunderground v.1.15,2013-03-07 23:35:00,
2013-03-07 18:40:00,37.6,29.0,30.34,West,280,1.0,1.0,71,0.00,,,0.01,Wunderground v.1.15,2013-03-07 23:40:00,
2013-03-07 18:50:00,37.6,29.0,30.35,West,280,1.0,1.0,71,0.00,,,0.01,Wunderground v.1.15,2013-03-07 23:50:00,
2013-03-07 19:00:00,37.3,29.1,30.35,West,272,1.0,1.0,72,0.00,,,0.01,Wunderground v.1.15,2013-03-08 00:00:00,
2013-03-07 19:10:00,37.2,29.3,30.35,West,272,1.0,2.0,73,0.00,,,0.01,Wunderground v.1.15,2013-03-08 00:10:00,
2013-03-07 19:20:00,36.9,29.4,30.35,West,281,1.0,1.0,74,0.00,,,0.01,Wunderground v.1.15,2013-03-08 00:20:00,
2013-03-07 19:30:00,36.8,29.3,30.35,West,265,1.0,1.0,74,0.00,,,0.01,Wunderground v.1.15,2013-03-08 00:30:00,
2013-03-07 19:40:00,36.6,29.4,30.35,West,267,1.0,1.0,75,0.00,,,0.01,Wunderground v.1.15,2013-03-08 00:40:00,
2013-03-07 19:50:00,36.5,29.3,30.35,West,267,0.0,0.0,75,0.00,,,0.01,Wunderground v.1.15,2013-03-08 00:50:00,
2013-03-07 20:00:00,36.3,29.1,30.36,West,267,0.0,0.0,75,0.00,,,0.01,Wunderground v.1.15,2013-03-08 01:00:00,
2013-03-07 20:05:00,36.3,29.1,30.36,West,268,0.0,0.0,75,0.00,,,0.01,Wunderground v.1.15,2013-03-08 01:05:00,
2013-03-07 20:10:00,36.3,29.1,30.36,West,270,0.0,1.0,75,0.00,,,0.01,Wunderground v.1.15,2013-03-08 01:10:00,
2013-03-07 20:20:00,36.2,29.0,30.36,West,270,1.0,1.0,75,0.00,,,0.01,Wunderground v.1.15,2013-03-08 01:20:00,
2013-03-07 20:30:00,36.0,29.2,30.36,West,270,0.0,1.0,76,0.00,,,0.01,Wunderground v.1.15,2013-03-08 01:30:00,
2013-03-07 20:40:00,36.0,29.2,30.36,WNW,284,1.0,1.0,76,0.00,,,0.01,Wunderground v.1.15,2013-03-08 01:40:00,
2013-03-07 20:45:00,35.9,29.1,30.36,West,280,1.0,1.0,76,0.00,,,0.01,Wunderground v.1.15,2013-03-08 01:45:00,
2013-03-07 20:55:00,35.9,29.1,30.36,West,281,0.0,1.0,76,0.00,,,0.01,Wunderground v.1.15,2013-03-08 01:55:00,
2013-03-07 21:05:00,35.6,28.8,30.36,West,280,0.0,0.0,76,0.00,,,0.01,Wunderground v.1.15,2013-03-08 02:05:00,
2013-03-07 21:10:00,35.6,28.8,30.36,West,281,0.0,0.0,76,0.00,,,0.01,Wunderground v.1.15,2013-03-08 02:10:00,
2013-03-07 21:20:00,35.3,28.5,30.36,West,281,1.0,1.0,76,0.00,,,0.01,Wunderground v.1.15,2013-03-08 02:20:00,
2013-03-07 21:30:00,35.0,28.5,30.36,West,280,1.0,1.0,77,0.00,,,0.01,Wunderground v.1.15,2013-03-08 02:30:00,
2013-03-07 21:40:00,34.9,28.7,30.36,WNW,291,0.0,2.0,78,0.00,,,0.01,Wunderground v.1.15,2013-03-08 02:40:00,
2013-03-07 21:50:00,34.7,28.5,30.37,WNW,291,1.0,1.0,78,0.00,,,0.01,Wunderground v.1.15,2013-03-08 02:50:00,
2013-03-07 22:00:00,34.6,28.4,30.37,WNW,291,0.0,0.0,78,0.00,,,0.01,Wunderground v.1.15,2013-03-08 03:00:00,
2013-03-07 22:05:00,34.3,28.2,30.37,WNW,291,0.0,0.0,78,0.00,,,0.01,Wunderground v.1.15,2013-03-08 03:05:00,
2013-03-07 22:10:00,34.0,27.9,30.37,WNW,291,0.0,0.0,78,0.00,,,0.01,Wunderground v.1.15,2013-03-08 03:10:00,
2013-03-07 22:20:00,33.4,27.6,30.37,WNW,291,0.0,0.0,79,0.00,,,0.01,Wunderground v.1.15,2013-03-08 03:20:00,
2013-03-07 22:30:00,32.9,27.4,30.37,WNW,291,0.0,0.0,80,0.00,,,0.01,Wunderground v.1.15,2013-03-08 03:30:00,
2013-03-07 22:40:00,32.4,27.2,30.37,WNW,291,0.0,0.0,81,0.00,,,0.01,Wunderground v.1.15,2013-03-08 03:40:00,
2013-03-07 22:50:00,31.9,27.3,30.37,WNW,291,0.0,0.0,83,0.00,,,0.01,Wunderground v.1.15,2013-03-08 03:50:00,
2013-03-07 22:55:00,31.6,27.0,30.37,WNW,291,0.0,0.0,83,0.00,,,0.01,Wunderground v.1.15,2013-03-08 03:55:00,
2013-03-07 23:05:00,31.2,26.9,30.37,WNW,291,0.0,0.0,84,0.00,,,0.01,Wunderground v.1.15,2013-03-08 04:05:00,
2013-03-07 23:10:00,31.0,27.0,30.37,WNW,291,0.0,0.0,85,0.00,,,0.01,Wunderground v.1.15,2013-03-08 04:10:00,
2013-03-07 23:20:00,30.6,26.9,30.36,WNW,291,0.0,0.0,86,0.00,,,0.01,Wunderground v.1.15,2013-03-08 04:20:00,
2013-03-07 23:30:00,30.4,26.7,30.36,WNW,291,0.0,0.0,86,0.00,,,0.01,Wunderground v.1.15,2013-03-08 04:30:00,
2013-03-07 23:35:00,30.3,26.9,30.36,WNW,291,0.0,0.0,87,0.00,,,0.01,Wunderground v.1.15,2013-03-08 04:35:00,
2013-03-07 23:40:00,30.1,26.7,30.36,WNW,291,0.0,0.0,87,0.00,,,0.01,Wunderground v.1.15,2013-03-08 04:40:00,
2013-03-07 23:50:00,29.7,26.3,30.36,WNW,291,0.0,0.0,87,0.00,,,0.01,Wunderground v.1.15,2013-03-08 04:50:00,